createdAt,value
2022-10-09T00:01:09.435Z,2.75
2022-10-09T00:03:38.267Z,3.08
2022-10-09T00:06:06.825Z,3.17
2022-10-09T00:08:39.467Z,3.28
2022-10-09T00:11:13.650Z,3.25
2022-10-09T00:13:40.857Z,3.75
2022-10-09T00:16:10.479Z,3.25
2022-10-09T00:18:37.789Z,3.50
2022-10-09T00:21:05.831Z,3.63
2022-10-09T00:23:33.209Z,3.58
2022-10-09T00:26:01.711Z,3.58
2022-10-09T00:28:34.218Z,3.38
2022-10-09T00:31:08.753Z,3.00
2022-10-09T00:33:37.057Z,3.33
2022-10-09T00:36:06.280Z,3.13
2022-10-09T00:38:34.112Z,3.65
2022-10-09T00:41:01.347Z,3.60
2022-10-09T00:43:59.185Z,3.83
2022-10-09T00:46:26.336Z,4.55
2022-10-09T00:49:22.999Z,4.00
2022-10-09T00:51:51.740Z,4.53
2022-10-09T00:54:22.362Z,4.05
2022-10-09T00:56:49.922Z,4.43
2022-10-09T00:59:17.913Z,4.82
2022-10-09T01:01:45.698Z,4.35
2022-10-09T01:04:13.170Z,4.80
2022-10-09T01:06:49.742Z,4.20
2022-10-09T01:09:28.641Z,4.82
2022-10-09T01:12:12.710Z,5.50
2022-10-09T01:14:56.129Z,5.95
2022-10-09T01:17:29.437Z,4.53
2022-10-09T01:20:15.307Z,4.88
2022-10-09T01:22:49.252Z,4.95
2022-10-09T01:25:28.185Z,5.22
2022-10-09T01:27:56.795Z,5.28
2022-10-09T01:30:23.923Z,5.95
2022-10-09T01:32:53.192Z,4.28
2022-10-09T01:35:21.861Z,4.18
2022-10-09T01:37:53.321Z,4.65
2022-10-09T01:40:21.859Z,5.97
2022-10-09T01:42:49.292Z,4.72
2022-10-09T01:45:16.865Z,4.30
2022-10-09T01:47:44.168Z,4.43
2022-10-09T01:50:28.153Z,4.00
2022-10-09T01:53:03.976Z,4.45
2022-10-09T01:56:01.699Z,4.47
2022-10-09T01:58:55.686Z,3.42
2022-10-09T02:01:31.707Z,3.35
2022-10-09T02:04:01.326Z,3.10
2022-10-09T02:06:31.134Z,2.85
2022-10-09T02:08:59.409Z,3.13
2022-10-09T02:11:30.824Z,3.42
2022-10-09T02:13:59.027Z,3.45
2022-10-09T02:16:37.787Z,3.33
2022-10-09T02:19:33.580Z,2.45
2022-10-09T02:22:26.198Z,2.50
2022-10-09T02:24:54.056Z,2.08
2022-10-09T02:27:22.370Z,2.72
2022-10-09T02:29:50.018Z,1.92
2022-10-09T02:32:17.382Z,2.05
2022-10-09T02:34:45.112Z,1.90
2022-10-09T02:37:12.241Z,2.42
2022-10-09T02:39:39.359Z,2.13
2022-10-09T02:42:06.559Z,2.50
2022-10-09T02:44:33.745Z,1.95
2022-10-09T02:47:00.812Z,3.10
2022-10-09T02:49:28.039Z,2.40
2022-10-09T02:51:55.091Z,2.10
2022-10-09T02:54:22.179Z,2.00
2022-10-09T02:56:49.385Z,2.13
2022-10-09T02:59:16.541Z,2.70
2022-10-09T03:01:43.660Z,2.30
2022-10-09T03:04:10.823Z,2.40
2022-10-09T03:06:38.200Z,2.42
2022-10-09T03:09:05.294Z,2.08
2022-10-09T03:11:32.421Z,2.63
2022-10-09T03:13:59.621Z,2.50
2022-10-09T03:16:27.276Z,2.80
2022-10-09T03:18:55.109Z,2.38
2022-10-09T03:21:24.836Z,2.63
2022-10-09T03:23:53.366Z,2.58
2022-10-09T03:26:23.521Z,2.80
2022-10-09T03:28:52.550Z,2.78
2022-10-09T03:31:46.933Z,2.47
2022-10-09T03:34:11.960Z,2.90
2022-10-09T03:36:39.156Z,2.40
2022-10-09T03:39:06.281Z,2.42
2022-10-09T03:41:33.344Z,2.55
2022-10-09T03:44:00.798Z,2.33
2022-10-09T03:46:28.027Z,2.55
2022-10-09T03:48:55.412Z,2.20
2022-10-09T03:51:22.493Z,3.17
2022-10-09T03:53:49.617Z,2.03
2022-10-09T03:56:16.727Z,2.17
2022-10-09T03:58:43.828Z,1.70
2022-10-09T04:01:11.171Z,2.30
2022-10-09T04:03:38.338Z,2.70
2022-10-09T04:06:05.744Z,1.88
2022-10-09T04:08:32.944Z,2.42
2022-10-09T04:11:00.533Z,2.28
2022-10-09T04:13:28.112Z,2.25
2022-10-09T04:15:56.505Z,2.88
2022-10-09T04:18:24.239Z,2.45
2022-10-09T04:20:56.239Z,2.05
2022-10-09T04:23:25.813Z,2.25
2022-10-09T04:25:54.902Z,2.13
2022-10-09T04:28:23.530Z,1.60
2022-10-09T04:30:51.168Z,1.50
2022-10-09T04:33:18.581Z,2.00
2022-10-09T04:35:49.538Z,1.65
2022-10-09T04:38:16.700Z,2.15
2022-10-09T04:40:44.062Z,2.00
2022-10-09T04:43:11.182Z,1.80
2022-10-09T04:45:41.826Z,2.20
2022-10-09T04:48:08.979Z,2.28
2022-10-09T04:50:39.044Z,2.08
2022-10-09T04:53:06.312Z,1.90
2022-10-09T04:55:33.446Z,1.95
2022-10-09T04:58:00.594Z,2.30
2022-10-09T05:00:27.733Z,1.83
2022-10-09T05:02:54.961Z,1.50
2022-10-09T05:05:22.100Z,1.70
2022-10-09T05:07:49.325Z,1.63
2022-10-09T05:10:16.686Z,1.55
2022-10-09T05:12:43.818Z,3.22
2022-10-09T05:15:11.063Z,2.33
2022-10-09T05:17:38.246Z,1.90
2022-10-09T05:20:05.724Z,1.80
2022-10-09T05:22:32.962Z,2.08
2022-10-09T05:25:00.088Z,1.65
2022-10-09T05:27:27.306Z,1.70
2022-10-09T05:29:54.412Z,1.75
2022-10-09T05:32:21.815Z,2.00
2022-10-09T05:34:48.857Z,1.73
2022-10-09T05:37:15.956Z,2.35
2022-10-09T05:39:43.069Z,2.33
2022-10-09T05:42:10.247Z,1.77
2022-10-09T05:44:37.470Z,1.58
2022-10-09T05:47:04.682Z,1.90
2022-10-09T05:49:31.842Z,1.83
2022-10-09T05:51:59.134Z,1.52
2022-10-09T05:54:26.322Z,1.80
2022-10-09T05:56:53.488Z,1.80
2022-10-09T05:59:20.776Z,2.35
2022-10-09T06:01:50.624Z,1.60
2022-10-09T06:04:20.105Z,1.83
2022-10-09T06:06:48.797Z,2.17
2022-10-09T06:09:18.159Z,1.92
2022-10-09T06:11:45.661Z,1.80
2022-10-09T06:14:13.890Z,2.10
2022-10-09T06:16:43.585Z,2.00
2022-10-09T06:19:13.289Z,1.80
2022-10-09T06:21:40.852Z,2.40
2022-10-09T06:24:08.339Z,1.63
2022-10-09T06:26:35.651Z,1.65
2022-10-09T06:29:02.844Z,2.20
2022-10-09T06:31:32.501Z,1.83
2022-10-09T06:34:01.396Z,2.25
2022-10-09T06:36:31.836Z,2.30
2022-10-09T06:39:00.926Z,1.80
2022-10-09T06:41:29.304Z,2.13
2022-10-09T06:44:01.685Z,2.10
2022-10-09T06:46:32.162Z,2.20
2022-10-09T06:49:00.642Z,2.20
2022-10-09T06:51:28.988Z,2.40
2022-10-09T06:53:58.558Z,2.28
2022-10-09T06:56:28.120Z,2.15
2022-10-09T06:58:55.452Z,2.45
2022-10-09T07:01:25.082Z,2.05
2022-10-09T07:03:57.179Z,2.45
2022-10-09T07:06:26.237Z,2.55
2022-10-09T07:08:59.465Z,2.85
2022-10-09T07:11:29.226Z,2.35
2022-10-09T07:14:00.119Z,2.20
2022-10-09T07:16:31.013Z,2.13
2022-10-09T07:19:01.261Z,2.90
2022-10-09T07:21:28.369Z,2.45
2022-10-09T07:23:55.888Z,2.22
2022-10-09T07:26:28.455Z,2.45
2022-10-09T07:28:56.699Z,2.05
2022-10-09T07:31:24.465Z,2.58
2022-10-09T07:33:53.624Z,2.95
2022-10-09T07:36:20.894Z,2.08
2022-10-09T07:38:53.141Z,2.20
2022-10-09T07:41:21.629Z,1.85
2022-10-09T07:43:48.908Z,2.17
2022-10-09T07:46:18.761Z,2.58
2022-10-09T07:48:46.997Z,1.83
2022-10-09T07:51:26.875Z,2.78
2022-10-09T07:53:54.025Z,2.15
2022-10-09T07:56:24.220Z,2.75
2022-10-09T07:58:56.749Z,2.33
2022-10-09T08:01:25.409Z,2.15
2022-10-09T08:03:52.540Z,2.58
2022-10-09T08:06:20.703Z,2.25
2022-10-09T08:08:52.230Z,2.38
2022-10-09T08:11:20.913Z,2.40
2022-10-09T08:13:48.958Z,1.90
2022-10-09T08:16:17.162Z,1.65
2022-10-09T08:18:44.395Z,1.70
2022-10-09T08:21:17.754Z,1.40
2022-10-09T08:23:45.477Z,1.30
2022-10-09T08:26:21.097Z,0.98
2022-10-09T08:28:56.934Z,1.40
2022-10-09T08:31:24.486Z,1.05
2022-10-09T08:33:53.926Z,0.80
2022-10-09T08:36:21.966Z,1.05
2022-10-09T08:38:49.175Z,1.52
2022-10-09T08:41:34.629Z,0.77
2022-10-09T08:44:11.760Z,1.45
2022-10-09T08:47:00.632Z,1.33
2022-10-09T08:49:40.517Z,1.00
2022-10-09T08:52:24.813Z,1.00
2022-10-09T08:54:54.028Z,1.00
2022-10-09T08:57:23.373Z,0.88
2022-10-09T08:59:50.517Z,0.90
2022-10-09T09:02:49.651Z,0.80
2022-10-09T09:05:27.783Z,0.90
2022-10-09T09:08:25.951Z,0.98
2022-10-09T09:11:30.828Z,1.10
2022-10-09T09:14:20.973Z,0.90
2022-10-09T09:17:20.135Z,1.23
2022-10-09T09:20:21.237Z,1.45
2022-10-09T09:22:50.575Z,0.73
2022-10-09T09:25:21.292Z,0.70
2022-10-09T09:27:48.535Z,1.50
2022-10-09T09:30:25.505Z,1.27
2022-10-09T09:33:00.938Z,0.90
2022-10-09T09:35:46.945Z,1.30
2022-10-09T09:38:14.725Z,2.33
2022-10-09T09:40:46.751Z,1.63
2022-10-09T09:43:23.929Z,2.20
2022-10-09T09:45:56.657Z,1.30
2022-10-09T09:48:43.624Z,1.15
2022-10-09T09:51:28.629Z,0.93
2022-10-09T09:54:04.138Z,1.23
2022-10-09T09:57:11.056Z,1.55
2022-10-09T09:59:43.240Z,1.60
2022-10-09T10:04:42.438Z,1.20
2022-10-09T10:07:10.457Z,1.80
2022-10-09T10:09:37.630Z,1.00
2022-10-09T10:12:06.440Z,1.58
2022-10-09T10:14:35.096Z,1.60
2022-10-09T10:17:02.619Z,1.13
2022-10-09T10:19:32.084Z,1.25
2022-10-09T10:22:04.812Z,1.38
2022-10-09T10:24:42.775Z,1.40
2022-10-09T10:27:38.715Z,1.25
2022-10-09T10:30:10.884Z,1.50
2022-10-09T10:32:56.314Z,2.00
2022-10-09T10:35:29.923Z,2.45
2022-10-09T10:37:59.892Z,1.20
2022-10-09T10:40:33.438Z,1.30
2022-10-09T10:43:09.925Z,1.38
2022-10-09T10:45:43.068Z,1.00
2022-10-09T10:48:25.519Z,1.20
2022-10-09T10:51:25.830Z,1.08
2022-10-09T10:54:08.134Z,1.55
2022-10-09T10:56:42.608Z,1.48
2022-10-09T10:59:37.697Z,1.50
2022-10-09T11:02:41.058Z,1.52
2022-10-09T11:05:12.363Z,1.98
2022-10-09T11:07:39.438Z,1.25
2022-10-09T11:10:26.339Z,1.58
2022-10-09T11:13:04.734Z,1.25
2022-10-09T11:15:59.542Z,1.48
2022-10-09T11:18:32.640Z,1.20
2022-10-09T11:21:06.104Z,1.25
2022-10-09T11:23:48.505Z,1.40
2022-10-09T11:26:20.719Z,1.00
2022-10-09T11:29:04.898Z,1.50
2022-10-09T11:31:39.549Z,1.33
2022-10-09T11:34:16.420Z,1.10
2022-10-09T11:36:45.296Z,1.05
2022-10-09T11:39:25.394Z,1.52
2022-10-09T11:41:54.763Z,1.15
2022-10-09T11:44:52.139Z,0.90
2022-10-09T11:47:38.205Z,0.93
2022-10-09T11:50:17.412Z,1.30
2022-10-09T11:53:11.353Z,2.05
2022-10-09T11:55:38.734Z,1.52
2022-10-09T11:58:19.068Z,0.88
2022-10-09T12:00:50.746Z,1.45
2022-10-09T12:03:35.240Z,1.17
2022-10-09T12:06:14.876Z,1.20
2022-10-09T12:09:04.176Z,1.98
2022-10-09T12:11:33.610Z,0.98
2022-10-09T12:14:03.352Z,1.20
2022-10-09T12:16:38.707Z,1.40
2022-10-09T12:19:23.846Z,1.38
2022-10-09T12:21:56.769Z,1.60
2022-10-09T12:24:31.584Z,1.23
2022-10-09T12:27:03.449Z,1.17
2022-10-09T12:29:39.213Z,1.08
2022-10-09T12:32:13.079Z,0.90
2022-10-09T12:34:49.428Z,0.85
2022-10-09T12:37:18.508Z,0.80
2022-10-09T12:39:46.777Z,1.33
2022-10-09T12:42:24.946Z,1.45
2022-10-09T12:44:55.175Z,0.80
2022-10-09T12:47:28.930Z,0.90
2022-10-09T12:50:00.492Z,1.10
2022-10-09T12:52:28.386Z,1.15
2022-10-09T12:54:55.738Z,0.80
2022-10-09T12:57:24.100Z,0.82
2022-10-09T12:59:54.444Z,0.68
2022-10-09T13:02:22.514Z,0.77
2022-10-09T13:05:00.945Z,0.90
2022-10-09T13:07:30.170Z,1.50
2022-10-09T13:10:05.890Z,1.55
2022-10-09T13:12:34.115Z,1.30
2022-10-09T13:15:07.784Z,1.27
2022-10-09T13:17:41.122Z,1.50
2022-10-09T13:20:17.339Z,1.17
2022-10-09T13:22:58.996Z,1.15
2022-10-09T13:25:29.052Z,0.73
2022-10-09T13:27:57.298Z,1.10
2022-10-09T13:30:25.895Z,0.85
2022-10-09T13:32:53.096Z,0.95
2022-10-09T13:35:20.451Z,1.20
2022-10-09T13:37:48.268Z,1.42
2022-10-09T13:40:18.195Z,0.95
2022-10-09T13:42:52.884Z,1.20
2022-10-09T13:45:20.060Z,1.15
2022-10-09T13:47:47.406Z,1.13
2022-10-09T13:50:16.075Z,1.80
2022-10-09T13:52:43.255Z,2.15
2022-10-09T13:55:10.782Z,1.20
2022-10-09T13:57:38.023Z,1.13
2022-10-09T14:00:06.772Z,0.70
2022-10-09T14:02:39.332Z,1.27
2022-10-09T14:05:06.803Z,1.17
2022-10-09T14:07:33.880Z,1.10
2022-10-09T14:10:01.094Z,0.80
2022-10-09T14:12:28.243Z,1.02
2022-10-09T14:14:55.317Z,0.60
2022-10-09T14:17:22.901Z,0.90
2022-10-09T14:19:50.032Z,0.90
2022-10-09T14:22:17.126Z,1.42
2022-10-09T14:24:44.366Z,0.90
2022-10-09T14:27:11.843Z,0.88
2022-10-09T14:29:39.118Z,1.15
2022-10-09T14:32:06.618Z,1.10
2022-10-09T14:34:33.767Z,0.85
2022-10-09T14:37:00.948Z,0.75
2022-10-09T14:39:28.017Z,0.85
2022-10-09T14:41:55.157Z,1.10
2022-10-09T14:44:22.352Z,0.77
2022-10-09T14:46:49.496Z,0.85
2022-10-09T14:49:16.598Z,0.85
2022-10-09T14:51:43.785Z,1.17
2022-10-09T14:54:11.878Z,1.15
2022-10-09T14:56:39.403Z,0.75
2022-10-09T14:59:06.732Z,1.30
2022-10-09T15:01:34.414Z,1.92
2022-10-09T15:04:02.682Z,1.42
2022-10-09T15:06:30.566Z,0.90
2022-10-09T15:09:03.176Z,0.75
2022-10-09T15:11:33.389Z,1.10
2022-10-09T15:14:00.678Z,1.00
2022-10-09T15:16:27.803Z,0.70
2022-10-09T15:18:56.136Z,1.25
2022-10-09T15:21:29.067Z,0.93
2022-10-09T15:23:58.551Z,0.98
2022-10-09T15:26:27.340Z,1.30
2022-10-09T15:28:54.569Z,0.90
2022-10-09T15:31:28.467Z,0.75
2022-10-09T15:33:57.484Z,0.90
2022-10-09T15:36:25.189Z,1.00
2022-10-09T15:38:52.388Z,0.93
2022-10-09T15:41:22.249Z,1.27
2022-10-09T15:43:50.472Z,1.00
2022-10-09T15:46:18.013Z,0.98
2022-10-09T15:48:45.527Z,1.00
2022-10-09T15:51:13.595Z,1.38
2022-10-09T15:53:42.802Z,1.65
2022-10-09T15:56:12.773Z,1.90
2022-10-09T15:58:40.661Z,1.23
2022-10-09T16:01:10.666Z,1.10
2022-10-09T16:03:38.350Z,1.15
2022-10-09T16:06:08.110Z,0.88
2022-10-09T16:08:35.988Z,0.82
2022-10-09T16:13:42.737Z,1.48
2022-10-09T16:16:19.074Z,1.50
2022-10-09T16:18:47.158Z,1.05
2022-10-09T16:21:17.444Z,1.23
2022-10-09T16:23:45.536Z,0.82
2022-10-09T16:26:17.020Z,1.10
2022-10-09T16:28:45.447Z,0.60
2022-10-09T16:31:28.272Z,0.45
2022-10-09T16:33:55.617Z,0.70
2022-10-09T16:36:23.175Z,0.93
2022-10-09T16:38:50.342Z,0.70
2022-10-09T16:41:20.104Z,0.70
2022-10-09T16:43:49.231Z,0.60
2022-10-09T16:46:28.565Z,1.00
2022-10-09T16:48:57.397Z,1.20
2022-10-09T16:51:30.740Z,0.85
2022-10-09T16:54:00.132Z,1.77
2022-10-09T16:56:33.353Z,0.95
2022-10-09T16:59:03.881Z,0.98
2022-10-09T17:01:32.315Z,1.25
2022-10-09T17:04:00.635Z,1.20
2022-10-09T17:06:28.240Z,1.20
2022-10-09T17:08:57.738Z,1.70
2022-10-09T17:11:26.150Z,1.40
2022-10-09T17:13:56.915Z,1.95
2022-10-09T17:16:27.852Z,1.55
2022-10-09T17:18:55.528Z,1.95
2022-10-09T17:21:23.053Z,1.73
2022-10-09T17:23:54.641Z,1.58
2022-10-09T17:26:24.043Z,1.50
2022-10-09T17:28:51.609Z,1.40
2022-10-09T17:31:23.812Z,1.60
2022-10-09T17:33:55.425Z,1.58
2022-10-09T17:36:25.968Z,1.50
2022-10-09T17:38:53.877Z,1.70
2022-10-09T17:41:23.745Z,1.80
2022-10-09T17:43:52.755Z,1.52
2022-10-09T17:46:20.727Z,1.48
2022-10-09T17:48:53.427Z,1.20
2022-10-09T17:51:32.875Z,1.58
2022-10-09T17:54:04.043Z,1.67
2022-10-09T17:56:33.363Z,1.50
2022-10-09T17:59:01.577Z,1.85
2022-10-09T18:01:29.162Z,1.23
2022-10-09T18:03:56.907Z,1.08
2022-10-09T18:06:24.231Z,1.40
2022-10-09T18:08:54.285Z,1.40
2022-10-09T18:11:30.313Z,1.33
2022-10-09T18:14:04.853Z,1.38
2022-10-09T18:19:22.886Z,1.25
2022-10-09T18:21:56.115Z,1.77
2022-10-09T18:24:23.324Z,1.40
2022-10-09T18:29:45.791Z,1.38
2022-10-09T18:32:12.988Z,1.50
2022-10-09T18:34:42.200Z,1.80
2022-10-09T18:39:40.035Z,1.63
2022-10-09T18:42:08.007Z,1.63
2022-10-09T18:44:40.290Z,1.60
2022-10-09T18:52:14.062Z,1.58
2022-10-09T18:54:49.271Z,2.65
2022-10-09T18:57:16.736Z,1.73
2022-10-09T18:59:43.949Z,2.35
2022-10-09T19:02:11.112Z,2.22
2022-10-09T19:04:38.231Z,2.83
2022-10-09T19:07:05.476Z,2.20
2022-10-09T19:09:32.645Z,2.92
2022-10-09T19:11:59.810Z,3.47
2022-10-09T19:14:26.987Z,3.60
2022-10-09T19:16:54.149Z,3.38
2022-10-09T19:19:21.273Z,2.80
2022-10-09T19:21:48.393Z,2.75
2022-10-09T19:24:15.493Z,2.38
2022-10-09T19:26:42.913Z,2.70
2022-10-09T19:29:10.188Z,2.60
2022-10-09T19:31:37.353Z,2.45
2022-10-09T19:34:05.384Z,2.25
2022-10-09T19:36:34.348Z,2.40
2022-10-09T19:39:02.717Z,3.45
2022-10-09T19:41:30.094Z,4.60
2022-10-09T19:43:57.236Z,5.47
2022-10-09T19:46:24.416Z,4.95
2022-10-09T19:48:52.414Z,6.47
2022-10-09T19:51:24.964Z,4.70
2022-10-09T19:53:53.556Z,4.22
2022-10-09T19:56:26.657Z,3.90
2022-10-09T19:58:55.168Z,4.30
2022-10-09T20:01:25.415Z,3.72
2022-10-09T20:04:07.739Z,3.95
2022-10-09T20:06:40.859Z,4.05
2022-10-09T20:09:09.230Z,4.78
2022-10-09T20:11:39.584Z,5.60
2022-10-09T20:14:07.568Z,4.00
2022-10-09T20:16:35.601Z,4.32
2022-10-09T20:19:04.925Z,3.45
2022-10-09T20:21:33.729Z,3.10
2022-10-09T20:24:01.809Z,3.38
2022-10-09T20:26:31.419Z,2.65
2022-10-09T20:28:59.067Z,2.95
2022-10-09T20:31:27.611Z,3.53
2022-10-09T20:33:58.996Z,3.53
2022-10-09T20:36:30.013Z,3.83
2022-10-09T20:38:59.452Z,3.53
2022-10-09T20:41:28.885Z,3.63
2022-10-09T20:43:57.939Z,3.58
2022-10-09T20:46:28.007Z,3.47
2022-10-09T20:48:56.624Z,3.72
2022-10-09T20:51:27.011Z,4.45
2022-10-09T20:53:56.589Z,3.95
2022-10-09T20:56:26.020Z,4.97
2022-10-09T20:58:54.027Z,5.20
2022-10-09T21:01:21.691Z,5.30
2022-10-09T21:03:49.406Z,5.13
2022-10-09T21:06:19.570Z,5.05
2022-10-09T21:08:47.223Z,5.50
2022-10-09T21:11:19.041Z,5.07
2022-10-09T21:13:47.022Z,4.35
2022-10-09T21:16:19.689Z,4.47
2022-10-09T21:18:47.948Z,3.95
2022-10-09T21:21:17.808Z,3.85
2022-10-09T21:23:45.945Z,3.70
2022-10-09T21:26:18.283Z,4.88
2022-10-09T21:28:46.458Z,5.38
2022-10-09T21:31:22.783Z,6.20
2022-10-09T21:33:50.839Z,5.82
2022-10-09T21:36:56.262Z,5.22
2022-10-09T21:39:31.495Z,5.90
2022-10-09T21:41:59.419Z,5.68
2022-10-09T21:44:30.257Z,5.35
2022-10-09T21:46:57.384Z,6.55
2022-10-09T21:49:27.351Z,5.70
2022-10-09T21:51:55.416Z,5.53
2022-10-09T21:54:25.665Z,5.07
2022-10-09T21:56:53.022Z,6.15
2022-10-09T21:59:23.998Z,5.30
2022-10-09T22:01:51.490Z,5.63
2022-10-09T22:04:27.103Z,5.20
2022-10-09T22:07:33.498Z,5.07
2022-10-09T22:10:00.911Z,4.53
2022-10-09T22:12:28.484Z,4.13
2022-10-09T22:14:59.951Z,4.30
2022-10-09T22:17:29.905Z,4.63
2022-10-09T22:19:56.980Z,5.35
2022-10-09T22:22:29.912Z,4.88
2022-10-09T22:24:59.341Z,4.95
2022-10-09T22:27:26.941Z,5.35
2022-10-09T22:29:54.516Z,5.60
2022-10-09T22:32:21.698Z,4.93
2022-10-09T22:34:52.075Z,4.38
2022-10-09T22:37:25.518Z,4.97
2022-10-09T22:39:53.041Z,4.10
2022-10-09T22:42:20.977Z,4.65
2022-10-09T22:44:48.100Z,3.83
2022-10-09T22:47:15.722Z,4.43
2022-10-09T22:49:43.592Z,4.25
2022-10-09T22:52:11.186Z,3.60
2022-10-09T22:54:38.599Z,4.65
2022-10-09T22:57:09.041Z,4.40
2022-10-09T22:59:36.192Z,4.53
2022-10-09T23:02:03.469Z,4.95
2022-10-09T23:04:31.591Z,4.32
2022-10-09T23:07:00.623Z,4.10
2022-10-09T23:09:30.904Z,4.97
2022-10-09T23:11:59.218Z,4.32
2022-10-09T23:14:26.881Z,4.03
2022-10-09T23:16:54.460Z,4.65
2022-10-09T23:19:21.705Z,4.45
2022-10-09T23:21:48.860Z,4.82
2022-10-09T23:24:17.858Z,3.90
2022-10-09T23:26:48.633Z,4.93
2022-10-09T23:29:21.952Z,4.03
2022-10-09T23:31:52.491Z,4.32
2022-10-09T23:34:20.044Z,5.28
2022-10-09T23:36:47.175Z,4.82
2022-10-09T23:39:17.322Z,4.40
2022-10-09T23:41:44.515Z,5.22
2022-10-09T23:46:52.579Z,4.43
2022-10-09T23:49:22.274Z,3.95
2022-10-09T23:51:52.489Z,4.18
2022-10-09T23:54:19.689Z,3.83
2022-10-09T23:56:46.820Z,4.22
2022-10-09T23:59:17.027Z,4.32
